Orbital elements of FENGYUN 1C DEB
| Launched | 9 May 1999 |
| Flight ended | – |
| Launch site | Taiyuan Space Center, PRC |
| Owner | People's Republic of China |
| NORAD ID | 30294 |
| Date fetched |
Epoch osculation |
Inc. [°] |
Ecc. | RA asc node [hr] |
Arg Peri. [°] |
Mean anom [°] |
Mean motion [rev/day] |
Abs. mag |
| Date fetched |
Epoch osculation |
Inc. [°] |
Ecc. | RA asc node [hr] |
Arg Peri. [°] |
Mean anom [°] |
Mean motion [rev/day] |
Abs. mag |
| 2026 May 05 17:57 | 2026 May 04 21:49:21 | 98.3693 | 0.01960 | 7.5880 | 241.9191 | 148.2140 | 14.35293 | – |
| 2026 May 04 17:57 | 2026 Apr 30 11:12:02 | 98.3693 | 0.01959 | 7.3004 | 255.2743 | 148.2140 | 14.35293 | – |
| 2026 May 03 17:57 | 2026 Apr 30 11:12:02 | 98.3693 | 0.01959 | 7.3004 | 255.2743 | 148.2140 | 14.35293 | – |
| 2026 May 02 17:57 | 2026 Apr 30 11:12:02 | 98.3693 | 0.01959 | 7.3004 | 255.2743 | 148.2140 | 14.35293 | – |
| 2026 May 01 17:56 | 2026 Apr 30 11:12:02 | 98.3693 | 0.01959 | 7.3004 | 255.2743 | 148.2140 | 14.35293 | – |
| 2026 Apr 30 17:56 | 2026 Apr 30 11:12:02 | 98.3693 | 0.01959 | 7.3004 | 255.2743 | 148.2140 | 14.35293 | – |
| 2026 Apr 29 17:57 | 2026 Apr 24 11:19:09 | 98.3690 | 0.01959 | 6.9124 | 273.3067 | 148.2140 | 14.35293 | – |
| 2026 Apr 28 17:56 | 2026 Apr 24 11:19:09 | 98.3690 | 0.01959 | 6.9124 | 273.3067 | 148.2140 | 14.35293 | – |
| 2026 Apr 27 17:58 | 2026 Apr 24 11:19:09 | 98.3690 | 0.01959 | 6.9124 | 273.3067 | 148.2140 | 14.35293 | – |
| 2026 Apr 26 17:58 | 2026 Apr 24 11:19:09 | 98.3690 | 0.01959 | 6.9124 | 273.3067 | 148.2140 | 14.35293 | – |
| 2026 Apr 25 17:58 | 2026 Apr 24 11:19:09 | 98.3690 | 0.01959 | 6.9124 | 273.3067 | 148.2140 | 14.35293 | – |
| 2026 Apr 24 17:59 | 2026 Apr 24 11:19:09 | 98.3690 | 0.01959 | 6.9124 | 273.3067 | 148.2140 | 14.35293 | – |
| 2026 Apr 23 17:57 | 2026 Apr 19 05:18:07 | 98.3691 | 0.01961 | 6.5725 | 289.0931 | 148.2140 | 14.35293 | – |
| 2026 Apr 22 17:57 | 2026 Apr 19 05:18:07 | 98.3691 | 0.01961 | 6.5725 | 289.0931 | 148.2140 | 14.35293 | – |
| 2026 Apr 21 17:57 | 2026 Apr 19 05:18:07 | 98.3691 | 0.01961 | 6.5725 | 289.0931 | 148.2140 | 14.35293 | – |
| 2026 Apr 20 17:57 | 2026 Apr 19 05:18:07 | 98.3691 | 0.01961 | 6.5725 | 289.0931 | 148.2140 | 14.35293 | – |
| 2026 Apr 19 17:58 | 2026 Apr 19 05:18:07 | 98.3691 | 0.01961 | 6.5725 | 289.0931 | 148.2140 | 14.35293 | – |
| 2026 Apr 18 17:56 | 2026 Apr 11 21:49:17 | 98.3686 | 0.01964 | 6.0993 | 311.0559 | 148.2140 | 14.35293 | – |
| 2026 Apr 16 17:57 | 2026 Apr 11 21:49:17 | 98.3686 | 0.01964 | 6.0993 | 311.0559 | 148.2140 | 14.35293 | – |
| 2026 Apr 14 17:57 | 2026 Apr 11 21:49:17 | 98.3686 | 0.01964 | 6.0993 | 311.0559 | 148.2140 | 14.35293 | – |
| 2026 Apr 13 17:57 | 2026 Apr 11 21:49:17 | 98.3686 | 0.01964 | 6.0993 | 311.0559 | 148.2140 | 14.35293 | – |
| 2026 Apr 12 17:57 | 2026 Apr 07 22:18:45 | 98.3685 | 0.01967 | 5.8418 | 322.9888 | 148.2140 | 14.35293 | – |
| 2026 Apr 11 17:57 | 2026 Apr 07 22:18:45 | 98.3685 | 0.01967 | 5.8418 | 322.9888 | 148.2140 | 14.35293 | – |
| 2026 Apr 10 17:58 | 2026 Apr 07 22:18:45 | 98.3685 | 0.01967 | 5.8418 | 322.9888 | 148.2140 | 14.35293 | – |
| 2026 Apr 09 18:01 | 2026 Apr 07 22:18:45 | 98.3685 | 0.01967 | 5.8418 | 322.9888 | 148.2140 | 14.35293 | – |
| 2026 Apr 08 17:57 | 2026 Apr 07 22:18:45 | 98.3685 | 0.01967 | 5.8418 | 322.9888 | 148.2140 | 14.35293 | – |